createdAt,value
2022-07-27T00:01:30.523Z,7.10
2022-07-27T00:06:34.091Z,7.50
2022-07-27T00:11:37.037Z,7.60
2022-07-27T00:16:40.164Z,6.90
2022-07-27T00:21:46.274Z,7.00
2022-07-27T00:26:49.479Z,7.00
2022-07-27T00:31:52.409Z,7.60
2022-07-27T00:36:55.284Z,6.70
2022-07-27T00:41:58.391Z,6.70
2022-07-27T00:47:01.763Z,6.30
2022-07-27T00:52:04.779Z,6.10
2022-07-27T00:57:10.330Z,6.20
2022-07-27T01:02:19.281Z,6.40
2022-07-27T01:07:26.607Z,6.60
2022-07-27T01:12:32.300Z,7.10
2022-07-27T01:17:35.637Z,6.80
2022-07-27T01:22:38.561Z,6.60
2022-07-27T01:27:41.443Z,7.20
2022-07-27T01:32:44.292Z,7.30
2022-07-27T01:37:48.077Z,7.20
2022-07-27T01:42:51.705Z,7.10
2022-07-27T01:47:54.601Z,6.90
2022-07-27T01:52:58.113Z,6.80
2022-07-27T01:58:04.117Z,6.80
2022-07-27T02:03:08.971Z,7.40
2022-07-27T02:08:11.871Z,7.60
2022-07-27T02:13:22.341Z,7.40
2022-07-27T02:18:33.169Z,6.90
2022-07-27T02:23:40.809Z,7.20
2022-07-27T02:28:43.713Z,7.60
2022-07-27T02:33:46.617Z,7.80
2022-07-27T02:38:49.509Z,7.70
2022-07-27T02:43:52.456Z,7.70
2022-07-27T02:48:55.375Z,8.70
2022-07-27T02:53:58.249Z,7.70
2022-07-27T02:59:01.908Z,7.80
2022-07-27T03:04:05.040Z,8.20
2022-07-27T03:09:08.827Z,8.20
2022-07-27T03:14:11.955Z,9.20
2022-07-27T03:19:15.072Z,9.30
2022-07-27T03:24:18.448Z,8.80
2022-07-27T03:29:21.328Z,7.80
2022-07-27T03:34:24.164Z,9.00
2022-07-27T03:39:26.990Z,8.60
2022-07-27T03:44:30.013Z,8.30
2022-07-27T03:49:32.939Z,8.60
2022-07-27T03:54:35.880Z,7.90
2022-07-27T03:59:38.793Z,7.90
2022-07-27T04:04:41.858Z,8.60
2022-07-27T04:09:44.706Z,8.00
2022-07-27T04:14:50.092Z,7.70
2022-07-27T04:19:53.022Z,7.70
2022-07-27T04:24:55.907Z,7.10
2022-07-27T04:29:58.769Z,7.20
2022-07-27T04:35:01.809Z,6.80
2022-07-27T04:40:05.631Z,7.60
2022-07-27T04:45:08.769Z,7.90
2022-07-27T04:50:13.598Z,7.50
2022-07-27T04:55:16.729Z,7.90
2022-07-27T05:00:19.736Z,6.60
2022-07-27T05:05:22.654Z,6.70
2022-07-27T05:10:25.777Z,6.70
2022-07-27T05:15:28.873Z,6.80
2022-07-27T05:20:52.252Z,6.90
2022-07-27T05:25:55.201Z,6.20
2022-07-27T05:30:58.119Z,6.10
2022-07-27T05:36:01.106Z,6.80
2022-07-27T05:41:08.222Z,7.10
2022-07-27T05:46:11.228Z,7.60
2022-07-27T05:51:14.163Z,7.40
2022-07-27T05:56:17.089Z,7.90
2022-07-27T06:01:20.164Z,7.50
2022-07-27T06:06:41.826Z,7.30
2022-07-27T06:11:44.737Z,7.80
2022-07-27T06:16:47.661Z,7.60
2022-07-27T06:21:53.834Z,9.00
2022-07-27T06:26:57.499Z,8.30
2022-07-27T06:32:00.378Z,7.60
2022-07-27T06:37:04.365Z,8.50
2022-07-27T06:42:07.236Z,8.90
2022-07-27T06:47:10.297Z,10.00
2022-07-27T06:52:13.665Z,9.00
2022-07-27T06:57:16.985Z,9.30
2022-07-27T07:02:20.608Z,9.10
2022-07-27T07:07:23.475Z,9.40
2022-07-27T07:12:28.553Z,8.50
2022-07-27T07:17:31.558Z,9.70
2022-07-27T07:22:34.563Z,8.20
2022-07-27T07:27:37.609Z,9.80
2022-07-27T07:32:40.633Z,10.30
2022-07-27T07:37:43.937Z,10.10
2022-07-27T07:42:59.075Z,9.70
2022-07-27T07:48:02.219Z,9.90
2022-07-27T07:53:05.118Z,9.40
2022-07-27T07:58:08.067Z,6.80
2022-07-27T08:03:10.991Z,7.70
2022-07-27T08:08:14.261Z,7.20
2022-07-27T08:13:21.635Z,9.00
2022-07-27T08:18:25.276Z,8.30
2022-07-27T08:23:28.597Z,8.50
2022-07-27T08:28:36.888Z,8.30
2022-07-27T08:33:41.064Z,8.50
2022-07-27T08:38:43.994Z,8.30
2022-07-27T08:43:48.741Z,9.10
2022-07-27T08:48:52.930Z,8.70
2022-07-27T08:53:56.309Z,8.80
2022-07-27T08:58:59.433Z,8.30
2022-07-27T09:04:02.479Z,8.50
2022-07-27T09:09:05.290Z,7.90
2022-07-27T09:14:12.660Z,8.70
2022-07-27T09:19:16.768Z,8.80
2022-07-27T09:24:46.605Z,7.50
2022-07-27T09:29:45.113Z,7.40
2022-07-27T09:34:47.984Z,6.80
2022-07-27T09:39:50.864Z,8.20
2022-07-27T09:44:55.017Z,7.70
2022-07-27T09:50:21.142Z,7.70
2022-07-27T09:55:24.062Z,7.40
2022-07-27T10:00:27.438Z,8.00
2022-07-27T10:05:30.693Z,6.90
2022-07-27T10:10:33.590Z,6.10
2022-07-27T10:15:40.682Z,6.10
2022-07-27T10:20:47.498Z,6.50
2022-07-27T10:26:21.361Z,6.30
2022-07-27T10:31:30.468Z,5.40
2022-07-27T10:36:33.428Z,6.40
2022-07-27T10:41:41.556Z,6.80
2022-07-27T10:47:03.842Z,5.80
2022-07-27T10:52:07.153Z,5.80
2022-07-27T10:57:10.065Z,6.20
2022-07-27T11:02:14.982Z,5.60
2022-07-27T11:12:31.094Z,4.90
2022-07-27T11:23:49.841Z,4.50
2022-07-27T11:33:33.018Z,5.50
2022-07-27T11:38:46.445Z,5.10
2022-07-27T11:43:49.380Z,4.50
2022-07-27T11:49:11.844Z,4.90
2022-07-27T11:54:25.707Z,5.10
2022-07-27T11:59:33.096Z,6.10
2022-07-27T12:04:38.368Z,3.70
2022-07-27T12:09:52.609Z,4.20
2022-07-27T12:14:57.573Z,4.80
2022-07-27T12:20:14.669Z,3.60
2022-07-27T12:25:17.681Z,3.60
2022-07-27T12:30:29.440Z,3.80
2022-07-27T12:35:47.261Z,3.80
2022-07-27T12:41:00.459Z,3.80
2022-07-27T12:46:14.266Z,4.00
2022-07-27T12:51:24.021Z,3.90
2022-07-27T12:56:27.627Z,3.90
2022-07-27T13:01:30.860Z,3.70
2022-07-27T13:06:33.951Z,3.70
2022-07-27T13:11:36.828Z,3.50
2022-07-27T13:16:39.754Z,3.10
2022-07-27T13:21:42.726Z,3.10
2022-07-27T13:26:45.668Z,2.90
2022-07-27T13:31:53.653Z,3.40
2022-07-27T13:36:57.912Z,3.10
2022-07-27T13:42:00.808Z,2.80
2022-07-27T13:47:03.859Z,3.00
2022-07-27T13:52:09.056Z,3.20
2022-07-27T13:57:11.980Z,3.20
2022-07-27T14:02:14.996Z,3.20
2022-07-27T14:07:23.508Z,3.20
2022-07-27T14:12:29.271Z,3.50
2022-07-27T14:17:32.412Z,3.50
2022-07-27T14:22:35.416Z,3.60
2022-07-27T14:27:38.607Z,3.50
2022-07-27T14:32:41.815Z,3.70
2022-07-27T14:37:44.791Z,3.80
2022-07-27T14:42:47.613Z,4.20
2022-07-27T14:47:50.486Z,4.00
2022-07-27T14:52:53.353Z,3.80
2022-07-27T14:57:56.287Z,3.90
2022-07-27T15:02:59.174Z,4.20
2022-07-27T15:08:04.280Z,4.80
2022-07-27T15:13:07.955Z,4.20
2022-07-27T15:18:10.931Z,3.80
2022-07-27T15:23:14.694Z,4.00
2022-07-27T15:28:17.554Z,3.00
2022-07-27T15:33:20.499Z,3.60
2022-07-27T15:38:24.014Z,3.60
2022-07-27T15:43:26.905Z,3.60
2022-07-27T15:48:29.819Z,3.70
2022-07-27T15:53:32.839Z,3.50
2022-07-27T15:58:35.848Z,3.70
2022-07-27T16:03:39.664Z,3.70
2022-07-27T16:08:44.223Z,4.00
2022-07-27T16:13:48.424Z,3.60
2022-07-27T16:18:52.746Z,3.30
2022-07-27T16:23:57.196Z,3.20
2022-07-27T16:29:00.327Z,3.40
2022-07-27T16:34:09.646Z,3.20
2022-07-27T16:39:13.707Z,3.00
2022-07-27T16:44:18.540Z,2.90
2022-07-27T16:49:21.552Z,2.70
2022-07-27T16:54:39.522Z,2.70
2022-07-27T16:59:43.245Z,2.70
2022-07-27T17:04:46.178Z,6.30
2022-07-27T17:09:49.241Z,3.50
2022-07-27T17:14:52.254Z,3.20
2022-07-27T17:19:55.111Z,2.70
2022-07-27T17:24:57.972Z,2.70
2022-07-27T17:30:01.519Z,3.00
2022-07-27T17:35:05.338Z,3.30
2022-07-27T17:40:08.719Z,3.60
2022-07-27T17:45:11.900Z,3.20
2022-07-27T17:50:14.765Z,3.70
2022-07-27T17:55:17.614Z,2.50
2022-07-27T18:00:21.101Z,1.90
2022-07-27T18:05:24.249Z,1.70
2022-07-27T18:10:27.259Z,2.40
2022-07-27T18:15:50.815Z,3.10
2022-07-27T18:20:56.432Z,2.40
2022-07-27T18:26:00.187Z,1.90
2022-07-27T18:31:03.852Z,1.50
2022-07-27T18:36:07.836Z,1.60
2022-07-27T18:41:12.572Z,1.70
2022-07-27T18:46:17.542Z,1.80
2022-07-27T18:51:20.485Z,1.80
2022-07-27T18:56:23.446Z,1.50
2022-07-27T19:01:26.893Z,1.50
2022-07-27T19:06:29.769Z,1.60
2022-07-27T19:11:32.678Z,1.70
2022-07-27T19:16:35.893Z,1.80
2022-07-27T19:21:38.829Z,1.60
2022-07-27T19:26:42.537Z,1.60
2022-07-27T19:31:45.998Z,1.60
2022-07-27T19:36:49.059Z,1.90
2022-07-27T19:41:53.422Z,1.60
2022-07-27T19:46:58.083Z,1.80
2022-07-27T19:52:03.092Z,1.60
2022-07-27T20:02:10.945Z,2.30
2022-07-27T20:07:13.876Z,2.30
2022-07-27T20:12:16.869Z,1.50
2022-07-27T20:17:19.783Z,1.50
2022-07-27T20:22:22.677Z,2.00
2022-07-27T20:27:25.872Z,1.80
2022-07-27T20:32:28.730Z,1.60
2022-07-27T20:37:32.530Z,1.80
2022-07-27T20:42:35.391Z,1.70
2022-07-27T20:47:43.433Z,1.80
2022-07-27T20:52:46.314Z,1.70
2022-07-27T20:57:49.352Z,1.70
2022-07-27T21:02:52.367Z,1.80
2022-07-27T21:07:56.228Z,2.00
2022-07-27T21:12:59.014Z,2.30
2022-07-27T21:18:02.738Z,2.40
2022-07-27T21:23:38.076Z,2.10
2022-07-27T21:28:41.292Z,2.10
2022-07-27T21:33:45.097Z,2.30
2022-07-27T21:38:48.083Z,2.00
2022-07-27T21:43:51.108Z,1.80
2022-07-27T21:48:54.078Z,1.90
2022-07-27T21:53:57.123Z,1.80
2022-07-27T21:59:00.106Z,1.80
2022-07-27T22:04:03.239Z,1.80
2022-07-27T22:09:06.235Z,2.00
2022-07-27T22:14:09.125Z,2.00
2022-07-27T22:19:12.111Z,2.10
2022-07-27T22:24:15.737Z,2.00
2022-07-27T22:29:18.973Z,1.90
2022-07-27T22:34:21.833Z,1.60
2022-07-27T22:39:24.877Z,1.80
2022-07-27T22:44:27.724Z,1.80
2022-07-27T22:49:30.672Z,2.70
2022-07-27T22:54:36.637Z,1.80
2022-07-27T22:59:39.569Z,2.10
2022-07-27T23:04:42.701Z,1.90
2022-07-27T23:09:45.544Z,1.70
2022-07-27T23:14:49.276Z,1.80
2022-07-27T23:19:52.310Z,1.60
2022-07-27T23:24:55.146Z,1.80
2022-07-27T23:29:59.403Z,1.70
2022-07-27T23:35:02.492Z,1.60
2022-07-27T23:40:06.468Z,1.90
2022-07-27T23:45:09.660Z,1.80
2022-07-27T23:50:12.722Z,1.50
2022-07-27T23:55:15.603Z,1.70
